Buda, Illinois
Current Conditions -  °F | °C
As of 5:55 PM on Saturday 25 Oct 2014 (Local Time) from KC75 Reporting Station
Clear Clear  
Wind Chill: 66°   Ceiling: Unl
Heat Index: 66°   Visibility: 10mi
Dew Point: 35°   Wind: 3mph
Humidity: 32%   Direction: 290°WNW
Pressure: 29.98"   Gusts: NA
Location:  41.33°N, 89.68°W
Report Text: KC75 252255Z AUTO 29003KT 10SM CLR 19/02 A2998 RMK AO2 T01910018
Loading
Personal Weather Stations






























Interactive Weather Map
Tropical Storm Tracking
New forecast layout! Learn more

10-Day Weather Forecast

Advertisements
Track Severe Weather on mobile